Aérodrome :
LOGIN :

S'inscrire | Disclaimer

   EN    FR    IT 

 










Légende :    VFR   VFR Marginal   IFR   IFR Intensif   IFR Très Intensif
Visi : 
Plafond : 
>= 8 km
>= 3000ft
5 à 8 km
1000 à 3000 ft
1500m à 5 km
500 à 1000 ft
800 à 1500m
200 à 500 ft
< 800m
< 200 ft
Symboles :   Orages  Brouillard  Fortes neiges  Fortes précipitations  Vent > 20 kt
SIGMETs :   Divers  Orages  Givrage  Turbulence  Onde Orograph.  Cendres Volcan.







- Altitude de l'aérodrome : 1300 ft
- Code IATA : LIG
- Voir les cartes d'approche


LFBL - Limoges

DERNIER METAR :
  • 211530Z AUTO VRB03KT CAVOK 22/10 Q1017 NOSIG

METARs EXPIRÉS :
  • 211500Z AUTO 15004KT 120V210 CAVOK 21/10 Q1017 NOSIG
  • 211430Z AUTO VRB03KT CAVOK 22/10 Q1017 NOSIG
  • 211400Z AUTO 19004KT 130V300 CAVOK 21/09 Q1018 NOSIG
  • 211330Z AUTO 20004KT 160V260 CAVOK 21/09 Q1018 NOSIG
  • 211300Z AUTO 19005KT 130V230 CAVOK 21/09 Q1018 NOSIG

TAF TAF LFBL
Valide du 21 à 12h jusqu'au 22 à 12h UTC


211100Z 2112/2212 VRB03KT CAVOK
BECMG 2205/2207 32006KT SCT020 BKN045
PROB30
TEMPO 2205/2208 4000 BR BKN005
ATIS : +33 5 55 48 40 37
Pas de NOTAMs connus pour ce terrain.



MET'MAP, la Météo Aéronautique d'un coup d'oeil ! - Copyright ORBIFLY Décembre 2007 - Disclaimer

ORBIFLY MET'MAP TEAM :

Programmation & Développement : Alexandra Zaïnal
Conception & Développement : Baudouin d'Aumeries
Co-Programmation & Développement : Marc-Olivier Méhu
Soutien technique & logistique : Manuel Goepfert

Contact : metmap@orbifly.com




SOURCES & CREDITS :

   NOAA